Time;durP1;ratioP1;P1;durP2;ratioP2;P2;SDS_P1;SDS_P2;PMS_P1;PMS_P2;Temp;Humidity;BMP_temperature;BMP_pressure;BME280_temperature;BME280_humidity;BME280_pressure;Samples;Min_cycle;Max_cycle;Signal;HPM_P1;HPM_P2
2023/03/01 00:01:16;;;;;;;21.50;11.40;;;;;;;-2.13;89.47;99366.84;4970230;28;20291;-59
2023/03/01 00:03:43;;;;;;;28.03;11.60;;;;;;;-2.16;90.05;99372.06;4968247;28;20231;-59
2023/03/01 00:06:11;;;;;;;26.50;11.73;;;;;;;-2.18;90.93;99368.72;4966314;28;20692;-59
2023/03/01 00:08:38;;;;;;;24.90;11.50;;;;;;;-2.15;91.04;99363.50;4968587;28;20727;-59
2023/03/01 00:11:07;;;;;;;25.63;11.93;;;;;;;-2.16;90.29;99376.34;4969272;28;20244;-58
2023/03/01 00:13:35;;;;;;;22.67;11.23;;;;;;;-2.10;90.54;99364.16;4968259;28;20240;-58
2023/03/01 00:16:03;;;;;;;22.73;12.10;;;;;;;-2.02;89.20;99368.19;4968916;28;20287;-59
2023/03/01 00:18:30;;;;;;;24.90;11.33;;;;;;;-2.01;88.95;99363.00;4968031;28;20291;-58
2023/03/01 00:20:57;;;;;;;23.93;11.77;;;;;;;-1.70;85.60;99363.69;4973360;28;20243;-58
2023/03/01 00:23:25;;;;;;;21.03;11.00;;;;;;;-1.74;85.83;99368.06;4969447;28;20220;-58
2023/03/01 00:25:53;;;;;;;20.63;10.40;;;;;;;-1.80;86.69;99365.72;4973097;28;20242;-56
2023/03/01 00:28:21;;;;;;;18.57;9.53;;;;;;;-1.62;84.77;99359.13;4972704;28;20305;-58
2023/03/01 00:30:48;;;;;;;22.33;11.50;;;;;;;-1.67;84.63;99361.84;4973402;28;20688;-58
2023/03/01 00:33:14;;;;;;;21.00;10.37;;;;;;;-1.74;87.35;99364.69;4974254;28;20285;-59
2023/03/01 00:35:41;;;;;;;23.93;11.13;;;;;;;-1.79;86.69;99359.72;4976286;28;20311;-58
2023/03/01 00:38:08;;;;;;;25.27;11.13;;;;;;;-1.77;86.34;99370.72;4973568;28;20311;-58
2023/03/01 00:40:36;;;;;;;18.47;8.23;;;;;;;-1.44;82.73;99370.41;4969588;28;20303;-58
2023/03/01 00:43:04;;;;;;;25.70;11.07;;;;;;;-1.49;83.86;99370.56;4970335;28;20287;-59
2023/03/01 00:45:31;;;;;;;24.20;12.37;;;;;;;-1.67;84.66;99369.50;4972128;28;20228;-59
2023/03/01 00:47:59;;;;;;;24.03;10.97;;;;;;;-1.69;84.41;99357.66;4972092;28;20242;-58
2023/03/01 00:50:25;;;;;;;21.43;11.10;;;;;;;-1.69;84.71;99358.50;4971398;28;20307;-58
2023/03/01 00:52:54;;;;;;;22.43;11.73;;;;;;;-1.63;83.49;99354.91;4970873;28;20252;-57
2023/03/01 00:55:20;;;;;;;22.17;11.33;;;;;;;-1.58;83.21;99354.72;4971546;28;20300;-57
2023/03/01 00:57:48;;;;;;;21.87;11.93;;;;;;;-1.56;83.37;99350.38;4964445;28;20247;-58
2023/03/01 01:00:16;;;;;;;21.00;11.47;;;;;;;-1.59;83.43;99353.84;4988470;28;20225;-58
2023/03/01 01:02:43;;;;;;;20.60;11.00;;;;;;;-1.64;83.99;99354.03;4972095;28;20586;-57
2023/03/01 01:05:09;;;;;;;21.50;11.00;;;;;;;-1.67;84.09;99343.91;4974246;28;20240;-57
2023/03/01 01:07:36;;;;;;;21.43;11.60;;;;;;;-1.56;83.23;99348.63;4969919;28;20231;-58
2023/03/01 01:10:04;;;;;;;25.90;13.23;;;;;;;-1.55;82.85;99341.78;4973524;28;20290;-57
2023/03/01 01:12:30;;;;;;;24.07;12.00;;;;;;;-1.43;82.09;99343.91;4974845;28;20221;-55
2023/03/01 01:14:58;;;;;;;21.30;11.17;;;;;;;-1.51;83.19;99344.19;4973729;28;20233;-58
2023/03/01 01:17:25;;;;;;;21.57;11.97;;;;;;;-1.60;83.19;99339.41;4977719;28;20282;-58
2023/03/01 01:19:51;;;;;;;23.77;12.20;;;;;;;-1.51;82.62;99340.78;4978836;28;20231;-56
2023/03/01 01:22:18;;;;;;;20.60;11.17;;;;;;;-1.40;81.54;99336.13;4975349;28;20238;-57
2023/03/01 01:24:44;;;;;;;19.73;10.67;;;;;;;-1.39;81.79;99337.78;4971997;28;20605;-58
2023/03/01 01:27:11;;;;;;;20.80;10.60;;;;;;;-1.46;83.01;99328.66;4972572;28;20231;-57
2023/03/01 01:29:38;;;;;;;22.53;11.67;;;;;;;-1.51;83.32;99328.81;4970553;28;20225;-56
2023/03/01 01:32:06;;;;;;;24.00;11.53;;;;;;;-1.57;84.10;99325.66;4972987;28;20228;-58
2023/03/01 01:34:33;;;;;;;22.30;11.80;;;;;;;-1.71;85.29;99321.88;4976667;28;20225;-58
2023/03/01 01:37:02;;;;;;;22.20;11.13;;;;;;;-1.77;85.15;99322.09;4971023;28;20305;-57
2023/03/01 01:39:29;;;;;;;25.20;11.30;;;;;;;-1.81;85.76;99317.97;4969791;28;20223;-56
2023/03/01 01:41:55;;;;;;;26.87;15.43;;;;;;;-1.71;84.44;99313.38;4970889;28;20533;-57
2023/03/01 01:44:24;;;;;;;24.00;12.13;;;;;;;-1.71;84.40;99314.19;4968037;28;20233;-57
2023/03/01 01:46:54;;;;;;;22.63;12.40;;;;;;;-1.57;83.34;99317.97;4974060;28;20653;-57
2023/03/01 01:49:31;;;;;;;23.27;10.13;;;;;;;-1.62;84.37;99315.59;4979455;28;20644;-58
2023/03/01 01:52:03;;;;;;;26.23;12.17;;;;;;;-1.73;84.21;99313.41;4965186;28;20229;-58
2023/03/01 01:54:39;;;;;;;23.17;12.40;;;;;;;-1.90;85.35;99311.47;4969917;28;20227;-58
2023/03/01 01:57:09;;;;;;;21.67;11.80;;;;;;;-2.06;86.75;99318.84;4973966;28;20579;-57
2023/03/01 01:59:37;;;;;;;26.80;12.47;;;;;;;-2.12;87.70;99312.22;4962210;28;20225;-58
2023/03/01 02:02:05;;;;;;;23.50;12.80;;;;;;;-2.08;86.93;99311.22;4972467;28;20246;-59
2023/03/01 02:04:34;;;;;;;20.77;11.57;;;;;;;-2.14;87.57;99308.06;4966610;28;20223;-58
2023/03/01 02:07:05;;;;;;;24.87;12.80;;;;;;;-2.31;87.79;99296.69;4972845;28;20244;-59
2023/03/01 02:09:34;;;;;;;23.83;11.87;;;;;;;-2.41;89.53;99297.91;4968570;28;20598;-59
2023/03/01 02:12:02;;;;;;;22.60;12.00;;;;;;;-2.50;89.95;99300.75;4978797;28;20689;-57
2023/03/01 02:14:29;;;;;;;26.90;12.57;;;;;;;-2.58;91.00;99294.19;4969344;28;20221;-58
2023/03/01 02:16:56;;;;;;;24.30;12.27;;;;;;;-2.68;91.40;99290.25;4979918;28;20255;-59
2023/03/01 02:19:35;;;;;;;24.60;12.33;;;;;;;-2.74;92.68;99287.91;4973124;28;20681;-58
2023/03/01 02:22:12;;;;;;;23.80;11.83;;;;;;;-2.78;92.79;99292.28;4971547;28;20705;-58
2023/03/01 02:24:50;;;;;;;25.53;12.53;;;;;;;-2.93;93.05;99288.50;4968809;28;20221;-58
2023/03/01 02:27:21;;;;;;;23.37;11.90;;;;;;;-2.94;93.79;99286.81;4974200;28;20243;-58
2023/03/01 02:29:50;;;;;;;23.77;11.80;;;;;;;-3.03;94.02;99277.75;4969074;28;20283;-58
2023/03/01 02:32:24;;;;;;;26.40;12.63;;;;;;;-3.07;95.20;99282.97;4976499;28;20225;-57
2023/03/01 02:34:52;;;;;;;26.07;13.17;;;;;;;-2.97;95.18;99282.66;4967494;28;20589;-57
2023/03/01 02:37:24;;;;;;;27.87;13.90;;;;;;;-3.03;94.83;99282.00;4972466;28;20228;-58
2023/03/01 02:39:57;;;;;;;24.73;13.00;;;;;;;-3.06;94.55;99270.19;4971993;28;20248;-58
2023/03/01 02:42:27;;;;;;;26.67;12.80;;;;;;;-3.06;95.84;99267.63;4969579;28;20252;-58
2023/03/01 02:44:55;;;;;;;24.23;13.13;;;;;;;-3.09;96.15;99267.72;4975547;28;20675;-58
2023/03/01 02:47:23;;;;;;;25.30;12.47;;;;;;;-3.10;96.37;99260.94;4977961;28;20220;-58
2023/03/01 02:49:49;;;;;;;27.73;13.23;;;;;;;-3.01;96.51;99257.25;4997671;28;20307;-58
2023/03/01 02:52:31;;;;;;;29.77;14.20;;;;;;;-2.63;92.43;99251.75;4983065;28;20695;-58
2023/03/01 02:55:01;;;;;;;25.17;11.67;;;;;;;-2.44;92.03;99254.53;4980280;28;20684;-58
2023/03/01 02:57:29;;;;;;;20.50;8.07;;;;;;;-1.97;87.89;99246.06;4979797;28;20232;-59
2023/03/01 03:00:06;;;;;;;28.10;13.03;;;;;;;-1.85;86.51;99239.63;4984989;28;20759;-58
2023/03/01 03:02:37;;;;;;;23.33;12.97;;;;;;;-2.05;87.94;99238.66;4982132;28;20239;-58
2023/03/01 03:05:20;;;;;;;25.63;12.70;;;;;;;-2.25;89.66;99236.81;4984337;28;20679;-58
2023/03/01 03:07:49;;;;;;;25.47;13.83;;;;;;;-2.36;90.21;99234.66;4980428;28;21207;-58
2023/03/01 03:10:19;;;;;;;29.50;13.97;;;;;;;-2.49;91.28;99235.97;4983080;28;20747;-55
2023/03/01 03:12:50;;;;;;;29.60;13.60;;;;;;;-2.57;92.12;99237.06;4981915;28;20244;-58
2023/03/01 03:15:20;;;;;;;27.67;13.57;;;;;;;-2.55;90.75;99229.31;4982849;28;20216;-58
2023/03/01 03:17:47;;;;;;;26.70;13.07;;;;;;;-2.52;91.49;99224.97;4982721;28;20818;-59
2023/03/01 03:20:18;;;;;;;25.33;12.97;;;;;;;-2.63;91.87;99232.16;4984003;28;20233;-59
2023/03/01 03:22:46;;;;;;;26.53;13.37;;;;;;;-2.60;92.60;99232.06;4981683;28;20247;-58
2023/03/01 03:25:12;;;;;;;25.43;13.63;;;;;;;-2.61;92.15;99224.41;4981999;28;20259;-59
2023/03/01 03:27:40;;;;;;;24.20;13.20;;;;;;;-2.72;93.02;99223.09;4980898;28;20311;-56
2023/03/01 03:30:11;;;;;;;26.03;13.77;;;;;;;-2.82;92.68;99220.00;4984424;28;20294;-58
2023/03/01 03:32:40;;;;;;;28.37;13.90;;;;;;;-2.94;94.09;99217.03;4982395;28;20649;-59
2023/03/01 03:35:09;;;;;;;27.37;12.83;;;;;;;-2.98;94.88;99216.28;4982743;28;20240;-58
2023/03/01 03:40:21;;;;;;;24.73;12.87;;;;;;;-3.06;95.45;99213.13;4985043;28;20232;-59
2023/03/01 03:42:48;;;;;;;27.50;14.00;;;;;;;-3.10;95.22;99204.75;4979881;28;21064;-59
2023/03/01 03:45:15;;;;;;;24.27;12.60;;;;;;;-3.29;95.55;99215.56;4982193;28;20315;-59
2023/03/01 03:47:43;;;;;;;25.83;13.97;;;;;;;-3.32;95.69;99212.28;4980801;28;20240;-58
2023/03/01 03:50:11;;;;;;;29.73;14.10;;;;;;;-3.34;97.32;99212.31;4984946;28;20246;-58
2023/03/01 03:52:37;;;;;;;28.60;14.27;;;;;;;-3.39;98.16;99213.34;4982203;28;20243;-57
2023/03/01 03:55:09;;;;;;;24.43;13.33;;;;;;;-3.43;98.23;99213.44;4984340;28;20240;-58
2023/03/01 03:57:35;;;;;;;30.60;13.97;;;;;;;-3.53;98.18;99216.31;4982342;28;20226;-58
2023/03/01 04:00:05;;;;;;;30.43;13.80;;;;;;;-3.54;97.60;99205.28;4984212;28;20233;-58
2023/03/01 04:02:38;;;;;;;27.87;14.17;;;;;;;-3.66;97.66;99213.31;4981350;28;20254;-58
2023/03/01 04:05:08;;;;;;;30.97;13.80;;;;;;;-3.72;98.13;99206.69;4984400;28;20691;-59
2023/03/01 04:07:35;;;;;;;29.40;14.00;;;;;;;-3.70;98.53;99199.81;4980309;28;20231;-59
2023/03/01 04:10:02;;;;;;;29.97;14.20;;;;;;;-3.82;98.87;99197.66;4981787;28;20655;-59
2023/03/01 04:12:28;;;;;;;27.00;13.73;;;;;;;-3.74;99.84;99193.16;4982162;28;20852;-58
2023/03/01 04:14:55;;;;;;;27.53;14.93;;;;;;;-3.76;100.00;99192.38;4991201;28;20692;-59
2023/03/01 04:17:22;;;;;;;29.90;14.23;;;;;;;-3.63;100.00;99192.81;4983518;28;20226;-59
2023/03/01 04:19:49;;;;;;;29.97;14.60;;;;;;;-3.73;100.00;99187.16;4983708;28;20232;-59
2023/03/01 04:22:17;;;;;;;28.07;14.13;;;;;;;-3.59;100.00;99186.72;4984184;28;20228;-59
2023/03/01 04:24:44;;;;;;;25.57;13.17;;;;;;;-3.54;100.00;99192.53;4981123;28;20236;-58
2023/03/01 04:27:10;;;;;;;33.53;14.17;;;;;;;-3.56;100.00;99179.81;4982601;28;20227;-59
2023/03/01 04:29:37;;;;;;;33.50;15.13;;;;;;;-3.57;100.00;99177.31;4980361;28;20295;-58
2023/03/01 04:32:04;;;;;;;48.70;18.50;;;;;;;-3.61;100.00;99186.75;5207285;23;20233;-59
2023/03/01 04:34:31;;;;;;;33.73;15.33;;;;;;;-3.53;100.00;99184.00;4932523;28;20229;-57
2023/03/01 04:36:57;;;;;;;58.63;35.17;;;;;;;-3.54;100.00;99192.53;4935397;28;20238;-59
2023/03/01 04:39:25;;;;;;;31.53;15.87;;;;;;;-3.56;100.00;99190.00;4936642;28;20228;-59
2023/03/01 04:41:52;;;;;;;35.80;22.90;;;;;;;-3.60;100.00;99178.22;4935584;28;20944;-58
2023/03/01 04:44:19;;;;;;;33.30;17.20;;;;;;;-3.63;99.99;99169.84;4936178;28;20312;-58
2023/03/01 04:46:45;;;;;;;29.30;16.00;;;;;;;-3.77;99.58;99177.94;4956763;23;20796;-63
2023/03/01 04:49:12;;;;;;;33.43;15.70;;;;;;;-3.77;100.00;99175.38;4953729;28;20237;-63
2023/03/01 04:51:39;;;;;;;32.50;15.77;;;;;;;-3.89;100.00;99174.88;4949822;28;20235;-63
2023/03/01 04:54:08;;;;;;;29.97;14.57;;;;;;;-3.86;100.00;99179.03;4949019;28;20251;-63
2023/03/01 04:56:36;;;;;;;40.70;20.97;;;;;;;-3.89;100.00;99167.22;4950754;28;20645;-63
2023/03/01 04:59:05;;;;;;;33.27;15.67;;;;;;;-3.86;100.00;99171.38;4953619;28;20241;-63
2023/03/01 05:01:32;;;;;;;28.17;14.90;;;;;;;-3.91;100.00;99179.19;4951975;28;20235;-63
2023/03/01 05:04:02;;;;;;;33.73;17.90;;;;;;;-3.92;100.00;99171.56;4951554;28;20608;-63
2023/03/01 05:06:29;;;;;;;38.00;20.67;;;;;;;-3.92;100.00;99174.97;4948772;28;20223;-63
2023/03/01 05:08:56;;;;;;;32.73;16.70;;;;;;;-3.88;100.00;99175.69;4948306;28;20591;-62
2023/03/01 05:11:22;;;;;;;31.40;15.40;;;;;;;-3.83;100.00;99173.84;4952225;28;20732;-62
2023/03/01 05:13:54;;;;;;;31.20;15.37;;;;;;;-3.94;100.00;99171.63;4954095;28;20229;-62
2023/03/01 05:16:21;;;;;;;36.27;17.83;;;;;;;-3.97;100.00;99173.41;4958451;28;20252;-62
2023/03/01 05:18:48;;;;;;;39.60;19.20;;;;;;;-4.00;100.00;99166.69;4954709;28;20704;-62
2023/03/01 05:21:17;;;;;;;39.03;19.77;;;;;;;-4.04;100.00;99176.13;4968362;28;20244;-62
2023/03/01 05:23:45;;;;;;;36.53;17.30;;;;;;;-3.97;100.00;99170.88;4951816;28;20242;-62
2023/03/01 05:26:12;;;;;;;31.67;14.97;;;;;;;-3.89;100.00;99168.91;4954316;28;20933;-62
2023/03/01 05:28:39;;;;;;;38.77;16.50;;;;;;;-3.90;100.00;99169.81;4950262;28;20310;-62
2023/03/01 05:31:09;;;;;;;33.13;16.33;;;;;;;-3.91;100.00;99173.22;4956850;28;20365;-62
2023/03/01 05:33:36;;;;;;;29.67;16.63;;;;;;;-3.93;100.00;99173.28;4956014;28;20680;-63
2023/03/01 05:36:04;;;;;;;32.30;15.30;;;;;;;-3.98;100.00;99169.19;4953188;28;20236;-63
2023/03/01 05:38:30;;;;;;;35.77;15.80;;;;;;;-3.98;100.00;99161.53;4953848;28;20225;-62
2023/03/01 05:40:57;;;;;;;29.50;14.47;;;;;;;-3.93;100.00;99172.44;4953556;28;20248;-62
2023/03/01 05:43:24;;;;;;;33.57;14.87;;;;;;;-3.93;100.00;99163.09;4954234;28;20220;-62
2023/03/01 05:45:50;;;;;;;30.50;15.43;;;;;;;-3.88;100.00;99178.25;4953804;28;20287;-62
2023/03/01 05:48:19;;;;;;;29.73;14.80;;;;;;;-3.89;100.00;99164.66;4950214;28;20790;-64
2023/03/01 05:50:47;;;;;;;28.10;14.20;;;;;;;-3.93;100.00;99170.75;4951677;28;20228;-64
2023/03/01 05:53:16;;;;;;;31.27;14.33;;;;;;;-4.00;100.00;99162.41;4953530;28;20224;-64
2023/03/01 05:55:46;;;;;;;38.27;17.93;;;;;;;-3.98;100.00;99159.84;4947844;28;20255;-63
2023/03/01 05:58:14;;;;;;;37.00;17.03;;;;;;;-3.99;100.00;99168.38;4951502;28;20712;-63
2023/03/01 06:00:42;;;;;;;36.20;17.23;;;;;;;-4.03;100.00;99167.63;4951383;28;20233;-63
2023/03/01 06:03:11;;;;;;;30.90;13.90;;;;;;;-3.88;100.00;99168.03;4953899;28;20246;-63
2023/03/01 06:05:40;;;;;;;30.87;14.53;;;;;;;-3.94;100.00;99161.41;4949790;28;20228;-63
2023/03/01 06:08:07;;;;;;;36.13;18.57;;;;;;;-3.95;100.00;99158.91;4946688;28;20408;-62
2023/03/01 06:10:34;;;;;;;32.40;15.70;;;;;;;-3.87;100.00;99159.50;4952499;28;20240;-62
2023/03/01 06:13:00;;;;;;;30.33;14.03;;;;;;;-3.77;100.00;99160.06;4951361;28;20240;-62
2023/03/01 06:15:27;;;;;;;29.00;14.40;;;;;;;-3.86;100.00;99161.19;4950285;28;20228;-62
2023/03/01 06:17:56;;;;;;;30.13;14.70;;;;;;;-3.86;100.00;99162.03;4952741;28;20713;-63
2023/03/01 06:20:26;;;;;;;33.30;15.83;;;;;;;-3.83;100.00;99162.81;4953953;28;20234;-63
2023/03/01 06:22:54;;;;;;;33.27;16.80;;;;;;;-3.82;100.00;99160.19;4955616;28;20250;-62
2023/03/01 06:25:23;;;;;;;33.37;17.17;;;;;;;-3.71;100.00;99153.06;4954584;28;20223;-62
2023/03/01 06:27:50;;;;;;;33.13;16.43;;;;;;;-3.63;100.00;99165.56;4949894;28;20237;-63
2023/03/01 06:30:18;;;;;;;28.20;14.40;;;;;;;-3.54;100.00;99164.47;4952340;28;20229;-63
2023/03/01 06:32:45;;;;;;;35.73;16.17;;;;;;;-3.54;100.00;99151.69;4950429;28;20629;-63
2023/03/01 06:35:13;;;;;;;33.43;16.13;;;;;;;-3.50;100.00;99160.94;4953031;28;20249;-63
2023/03/01 06:37:41;;;;;;;31.60;15.80;;;;;;;-3.45;100.00;99161.63;4950947;28;20216;-63
2023/03/01 06:40:13;;;;;;;33.40;17.00;;;;;;;-3.32;100.00;99154.38;4955917;28;20834;-63
2023/03/01 06:42:42;;;;;;;34.77;15.90;;;;;;;-3.15;100.00;99160.66;4950089;28;20600;-63
2023/03/01 06:45:11;;;;;;;34.73;17.43;;;;;;;-3.07;100.00;99156.13;4953363;28;20261;-63
2023/03/01 06:47:37;;;;;;;32.87;17.33;;;;;;;-3.04;100.00;99152.63;4953679;28;20351;-63
2023/03/01 06:50:05;;;;;;;34.00;15.70;;;;;;;-2.93;100.00;99145.44;4951712;28;20710;-63
2023/03/01 06:52:31;;;;;;;34.73;15.77;;;;;;;-2.57;100.00;99150.16;4947982;28;20235;-63
2023/03/01 06:54:58;;;;;;;46.70;22.53;;;;;;;-2.41;100.00;99149.59;4952177;28;20300;-63
2023/03/01 06:57:26;;;;;;;64.13;30.53;;;;;;;-2.26;99.06;99146.50;4949911;28;20224;-63
2023/03/01 06:59:53;;;;;;;45.63;22.77;;;;;;;-2.24;98.66;99144.72;4952810;28;20309;-63
2023/03/01 07:02:20;;;;;;;43.67;23.88;;;;;;;-2.16;98.86;99141.03;4953553;28;20932;-63
2023/03/01 07:04:46;;;;;;;35.07;17.63;;;;;;;-2.08;98.42;99141.56;4951147;28;20237;-63
2023/03/01 07:07:13;;;;;;;34.67;17.53;;;;;;;-2.04;99.05;99137.16;4955973;28;20270;-63
2023/03/01 07:09:39;;;;;;;34.10;17.53;;;;;;;-1.94;98.05;99139.31;4949518;28;20222;-63
2023/03/01 07:12:07;;;;;;;29.73;15.90;;;;;;;-1.94;97.71;99131.63;4954231;28;20252;-63
2023/03/01 07:14:35;;;;;;;34.07;17.10;;;;;;;-1.85;97.25;99125.34;4947376;28;20796;-63
2023/03/01 07:17:02;;;;;;;37.57;18.60;;;;;;;-1.80;96.70;99130.25;4969114;28;20233;-63
2023/03/01 07:19:28;;;;;;;33.67;16.00;;;;;;;-1.84;96.38;99128.72;4948106;28;20286;-63
2023/03/01 07:21:55;;;;;;;31.83;16.13;;;;;;;-1.84;97.00;99134.69;4952913;28;20293;-63
2023/03/01 07:24:22;;;;;;;31.77;16.07;;;;;;;-1.72;96.04;99119.75;4949577;28;20221;-63
2023/03/01 07:26:50;;;;;;;36.57;17.97;;;;;;;-1.62;94.96;99118.47;4950171;28;21263;-63
2023/03/01 07:29:16;;;;;;;34.40;17.80;;;;;;;-1.53;92.91;99119.81;4952266;28;20241;-63
2023/03/01 07:31:45;;;;;;;36.20;18.67;;;;;;;-1.44;93.46;99113.47;4949227;28;20245;-63
2023/03/01 07:34:11;;;;;;;38.23;17.03;;;;;;;-1.35;93.15;99119.09;4953443;28;20583;-63
2023/03/01 07:36:39;;;;;;;33.17;17.20;;;;;;;-1.22;92.81;99113.44;4948800;28;20293;-63
2023/03/01 07:39:05;;;;;;;37.13;18.20;;;;;;;-1.07;90.51;99117.09;4951008;28;20230;-63
2023/03/01 07:41:32;;;;;;;32.23;17.40;;;;;;;-0.88;90.01;99109.44;4951184;28;20282;-63
2023/03/01 07:43:59;;;;;;;34.87;18.00;;;;;;;-0.72;89.33;99106.22;4950434;28;20236;-64
2023/03/01 07:46:25;;;;;;;33.40;17.90;;;;;;;-0.56;87.81;99111.50;4951994;28;20272;-63
2023/03/01 07:48:53;;;;;;;30.57;16.90;;;;;;;-0.41;87.83;99113.38;4954425;28;20314;-63
2023/03/01 07:51:20;;;;;;;37.20;18.97;;;;;;;-0.26;87.73;99108.44;4951322;28;20238;-63
2023/03/01 07:53:47;;;;;;;39.47;19.60;;;;;;;-0.10;85.83;99119.66;4948913;28;20238;-63
2023/03/01 07:56:17;;;;;;;34.37;18.63;;;;;;;0.03;86.34;99117.34;4950571;28;20226;-63
2023/03/01 07:58:44;;;;;;;32.40;16.60;;;;;;;0.17;84.62;99111.59;4950581;28;20222;-63
2023/03/01 08:01:13;;;;;;;30.27;16.83;;;;;;;0.26;81.44;99115.44;4948885;28;20244;-63
2023/03/01 08:03:40;;;;;;;27.53;14.27;;;;;;;0.39;80.62;99110.56;4945546;28;20285;-63
2023/03/01 08:06:10;;;;;;;28.80;16.50;;;;;;;0.44;80.71;99116.31;4949459;28;20388;-63
2023/03/01 08:08:37;;;;;;;34.43;19.63;;;;;;;0.50;78.95;99120.31;4951611;28;20247;-63
2023/03/01 08:11:06;;;;;;;32.87;16.23;;;;;;;0.52;78.86;99111.63;4950944;28;20706;-63
2023/03/01 08:13:33;;;;;;;24.10;12.67;;;;;;;0.53;77.86;99115.03;4946655;28;20728;-63
2023/03/01 08:16:02;;;;;;;25.60;13.50;;;;;;;0.64;76.69;99110.19;4951733;28;20238;-63
2023/03/01 08:18:29;;;;;;;24.77;14.30;;;;;;;0.54;78.61;99107.22;4947570;28;20225;-63
2023/03/01 08:20:56;;;;;;;37.83;19.53;;;;;;;0.59;76.99;99104.44;4952070;28;20241;-63
2023/03/01 08:23:25;;;;;;;30.23;15.30;;;;;;;0.64;77.41;99101.63;4965325;28;20260;-63
2023/03/01 08:25:52;;;;;;;25.87;13.57;;;;;;;0.72;77.12;99100.38;4950426;28;20223;-63
2023/03/01 08:28:21;;;;;;;28.13;15.30;;;;;;;0.73;76.96;99101.19;4956972;28;20224;-63
2023/03/01 08:30:48;;;;;;;26.00;13.57;;;;;;;0.82;76.66;99092.19;4947979;28;20776;-63
2023/03/01 08:33:14;;;;;;;24.57;13.07;;;;;;;0.84;76.71;99103.22;4952766;28;20633;-63
2023/03/01 08:35:41;;;;;;;27.83;13.87;;;;;;;0.83;75.60;99097.25;4950992;28;20229;-63
2023/03/01 08:38:07;;;;;;;29.53;14.10;;;;;;;0.90;76.24;99100.34;4950979;28;20237;-63
2023/03/01 08:40:35;;;;;;;26.93;14.37;;;;;;;0.98;77.22;99108.50;4951695;28;20284;-64
2023/03/01 08:43:02;;;;;;;26.47;13.40;;;;;;;1.04;77.35;99104.78;4949577;28;20297;-64
2023/03/01 08:45:29;;;;;;;24.70;14.70;;;;;;;1.14;76.12;99105.97;4950238;28;20311;-64
2023/03/01 08:47:55;;;;;;;27.30;14.33;;;;;;;1.26;74.89;99094.22;4954536;28;20748;-64
2023/03/01 08:50:24;;;;;;;24.13;14.33;;;;;;;1.37;75.10;99095.38;4953066;28;20630;-64
2023/03/01 08:52:51;;;;;;;28.20;16.13;;;;;;;1.60;72.92;99095.00;4952171;28;20253;-64
2023/03/01 08:55:17;;;;;;;27.97;14.77;;;;;;;1.68;71.85;99089.44;4953493;28;20237;-64
2023/03/01 08:57:45;;;;;;;24.63;14.37;;;;;;;1.65;71.57;99091.34;4951475;28;20238;-64
2023/03/01 09:00:14;;;;;;;21.97;12.77;;;;;;;1.82;70.86;99078.41;4953915;28;20231;-64
2023/03/01 09:02:41;;;;;;;27.13;14.90;;;;;;;1.89;69.88;99078.88;4951314;28;20235;-64
2023/03/01 09:05:08;;;;;;;26.23;13.10;;;;;;;1.96;68.85;99081.97;4953033;28;20233;-64
2023/03/01 09:07:35;;;;;;;28.87;14.97;;;;;;;1.89;69.15;99076.31;4951565;28;20233;-64
2023/03/01 09:10:01;;;;;;;16.67;9.50;;;;;;;1.97;68.74;99074.16;4955095;28;20601;-64
2023/03/01 09:12:28;;;;;;;26.77;13.97;;;;;;;2.08;68.97;99065.84;4954833;28;20229;-63
2023/03/01 09:14:56;;;;;;;29.80;15.03;;;;;;;2.20;68.54;99064.31;4953561;28;20241;-63
2023/03/01 09:17:22;;;;;;;26.87;13.80;;;;;;;2.26;69.36;99065.69;4954996;28;20221;-63
2023/03/01 09:19:49;;;;;;;25.87;14.03;;;;;;;2.28;68.04;99059.56;4955262;28;20353;-64
2023/03/01 09:22:16;;;;;;;27.83;14.87;;;;;;;2.34;68.02;99063.53;4951966;28;20230;-64
2023/03/01 09:24:42;;;;;;;29.80;16.47;;;;;;;2.33;68.44;99062.69;4950569;28;20617;-64
2023/03/01 09:27:09;;;;;;;35.53;19.30;;;;;;;2.18;70.40;99055.84;4956600;28;20262;-64
2023/03/01 09:29:38;;;;;;;31.77;16.77;;;;;;;2.32;68.83;99052.47;4952388;28;20314;-64
2023/03/01 09:32:06;;;;;;;31.93;16.73;;;;;;;2.34;69.59;99048.91;4956149;28;20649;-65
2023/03/01 09:35:00;;;;;;;31.30;17.40;;;;;;;2.47;68.99;99048.19;4955556;28;20272;-65
2023/03/01 09:37:19;;;;;;;23.67;13.07;;;;;;;2.17;68.38;99055.00;4954746;28;20226;-65
2023/03/01 09:39:46;;;;;;;33.97;17.37;;;;;;;2.26;68.73;99051.09;4952003;28;20237;-65
2023/03/01 09:42:13;;;;;;;19.90;10.27;;;;;;;2.15;67.84;99054.25;4954187;28;20694;-65
2023/03/01 09:44:48;;;;;;;26.63;13.37;;;;;;;2.10;68.98;99047.72;4954042;28;20285;-65
2023/03/01 09:47:19;;;;;;;34.33;17.73;;;;;;;2.46;77.47;99055.09;4951808;28;20234;-63
2023/03/01 09:49:54;;;;;;;35.80;18.30;;;;;;;2.49;70.90;99048.94;4948846;28;20289;-62
2023/03/01 09:52:30;;;;;;;33.33;17.47;;;;;;;2.55;67.93;99051.16;4951458;28;20226;-63
2023/03/01 09:54:57;;;;;;;34.70;18.50;;;;;;;2.43;68.80;99042.38;4965686;28;20241;-62
2023/03/01 09:57:30;;;;;;;37.60;18.80;;;;;;;2.51;68.46;99047.91;4952742;28;20299;-61
2023/03/01 10:00:08;;;;;;;40.20;19.70;;;;;;;2.39;68.25;99046.06;4950785;28;20226;-61
2023/03/01 10:02:42;;;;;;;36.10;18.47;;;;;;;2.39;67.06;99042.66;4951404;28;20226;-61
2023/03/01 10:05:29;;;;;;;26.30;13.53;;;;;;;2.28;68.43;99033.78;4951193;28;20288;-61
2023/03/01 10:08:07;;;;;;;35.07;17.33;;;;;;;2.31;68.62;99032.78;4951341;28;20670;-60
2023/03/01 10:10:36;;;;;;;31.10;16.67;;;;;;;2.39;68.62;99028.00;4949852;28;20447;-62
2023/03/01 10:13:09;;;;;;;40.53;20.90;;;;;;;2.45;69.42;99027.66;4965325;28;20237;-62
2023/03/01 10:15:40;;;;;;;34.80;18.50;;;;;;;2.53;67.92;99023.81;4947935;28;20234;-62
2023/03/01 10:18:16;;;;;;;37.97;19.83;;;;;;;2.50;68.43;99023.06;4949116;28;20245;-62
2023/03/01 10:20:51;;;;;;;40.70;21.60;;;;;;;2.59;67.87;99019.16;4945425;28;20308;-62
2023/03/01 10:23:17;;;;;;;41.00;20.07;;;;;;;2.64;68.23;99042.91;4952515;28;20214;-62
2023/03/01 10:25:53;;;;;;;42.00;20.13;;;;;;;2.56;68.74;99021.06;4943191;28;20241;-62
2023/03/01 10:28:29;;;;;;;37.60;18.93;;;;;;;2.63;67.58;99015.47;4953437;28;20238;-62
2023/03/01 10:30:58;;;;;;;37.40;20.37;;;;;;;2.64;68.10;99016.28;4949581;28;20230;-62
2023/03/01 10:33:30;;;;;;;36.57;19.17;;;;;;;2.70;68.46;99017.66;4949514;28;20231;-62
2023/03/01 10:35:56;;;;;;;35.43;20.33;;;;;;;2.82;67.35;99014.34;4956712;28;20235;-62
2023/03/01 10:38:23;;;;;;;38.83;20.17;;;;;;;2.79;66.23;99010.22;4952731;28;20226;-62
2023/03/01 10:40:53;;;;;;;38.73;19.87;;;;;;;2.84;66.77;98997.03;4948609;28;20237;-62
2023/03/01 10:43:23;;;;;;;35.47;19.80;;;;;;;2.74;66.14;99008.81;4951542;28;20276;-62
2023/03/01 10:45:50;;;;;;;37.40;20.67;;;;;;;2.72;66.70;99008.91;4953975;28;20235;-62
2023/03/01 10:48:19;;;;;;;40.10;19.87;;;;;;;2.80;66.88;99000.72;4952157;28;20922;-62
2023/03/01 10:50:49;;;;;;;37.30;20.53;;;;;;;2.87;66.18;99003.78;4950778;28;20238;-62
2023/03/01 10:53:26;;;;;;;38.77;19.87;;;;;;;2.90;66.68;99003.59;4951824;28;20225;-62
2023/03/01 10:56:03;;;;;;;41.67;19.83;;;;;;;2.86;65.38;98996.97;4952001;28;20252;-62
2023/03/01 10:58:31;;;;;;;28.33;14.43;;;;;;;2.89;65.75;98994.19;4948593;28;20234;-62
2023/03/01 11:01:00;;;;;;;38.80;19.63;;;;;;;2.99;65.46;98982.41;4950469;28;20606;-62
2023/03/01 11:03:28;;;;;;;41.00;21.13;;;;;;;3.07;66.44;98982.75;4952003;28;20253;-62
2023/03/01 11:06:02;;;;;;;37.70;19.47;;;;;;;3.15;65.76;98982.28;4953498;28;20297;-62
2023/03/01 11:08:42;;;;;;;39.13;21.10;;;;;;;3.18;65.05;98978.69;4950827;28;20294;-62
2023/03/01 11:11:32;;;;;;;40.03;22.83;;;;;;;3.28;65.47;98974.59;4956721;28;20543;-62
2023/03/01 11:14:00;;;;;;;37.93;20.27;;;;;;;3.33;64.28;98964.00;4949463;28;20233;-62
2023/03/01 11:16:33;;;;;;;37.00;19.63;;;;;;;3.46;63.57;98967.47;4951014;28;20225;-62
2023/03/01 11:19:04;;;;;;;38.47;20.23;;;;;;;3.59;63.65;98949.44;4951443;28;20252;-62
2023/03/01 11:21:35;;;;;;;36.27;20.80;;;;;;;3.80;64.85;98952.38;4951714;28;20294;-63
2023/03/01 11:24:04;;;;;;;40.97;19.73;;;;;;;3.91;61.93;98945.69;4951341;28;20235;-63
2023/03/01 11:26:35;;;;;;;32.30;19.43;;;;;;;3.98;64.05;98944.38;4949810;28;20693;-63